Westford, VT (05494)

11:29 AM EDT op 31 maart 2015 (GMT -0400)
Huntley Rd. | | Change Station
CLOSE
Current Station
Persoonlijk weerstation
Location: Westford, VT
Geometrische hoogte: 518 ft
Nabije weerstations

Hoogte 518 ft 44.63 °N, 73.00 °W | Updated 3 seconds ago

Gedeeltelijk bewolkt
Gedeeltelijk bewolkt
34.0 °F
Voelt als 30 °F
N
4.3
Wind Variabel Wind van NNW
Gusts 12.5 mijl/u

Vandaag
Hoog -- | Laag -- °F
--% Kans op neerslag
Gisteren
Hoog -- | Laag -- °F
Precip. -- inches
6:35 AM 7:17 PM
Wassende maan, 87% visible
Druk 29.81 inches
Zicht 10.0 mijlen
Wolken Licht bewolkt 3900 ft
Gevoelstemperatuur 30 °F
Dauwpunt 8 °F
Vochtigheid 33%
Neerslag 0.00 inches
Dikte sneeuw Niet beschikbaar.
UV 5 van de 12
Pollen 1.70 van de 12
Luchtkwaliteit Niet beschikbaar.
Flu Activity Niet beschikbaar.
METAR KBTV 311454Z 30009KT 10SM SCT039 02/M09 A2980 RMK AO2 SLP093 T00171094 50001

More Conditions Fewer Conditions

Druk 29.81 inches
Zicht 10.0 mijlen
Wolken Licht bewolkt 3900 ft
Gevoelstemperatuur 30 °F
Dauwpunt 8 °F
Vochtigheid 33%
Neerslag 0.00 inches
Dikte sneeuw Niet beschikbaar.
UV 5 van de 12
Pollen 1.70 van de 12
Luchtkwaliteit Niet beschikbaar.
Flu Activity Niet beschikbaar.
METAR KBTV 311454Z 30009KT 10SM SCT039 02/M09 A2980 RMK AO2 SLP093 T00171094 50001

More Conditions Fewer Conditions

10-Day Weather Forecast

Almanac

Astronomie

Mar. 31, 2015 Opkomst Ondergang
Werkelijke tijd
Burgerlijke schemering
Nautische schemering
Astronomische schemering
Maan
Golflengte van het zichtbare licht
Daglengte
Tomorrow will be .
, % of the Moon is Illuminated

Extremen vandaag

State Highs State Lows

Community

WunderPhotos

Upload Photos

1,809,778 foto’s ge-upload!

WunderBlogs® & News

Nearby

Luchtkwaliteit

  Luchtkwaliteit LK-index Verontreinigende stof
Not available.

Dikte sneeuw

Station Depth Geometrische hoogte

Aardbevingen

Stad Distance Mag. Time & Date
Minimum magnitude displayed is 2.5.

Watertemperatuur langs de kust

Plaats Temperatuur

Stations

Nabije weerstations

Locatie station Temp. Gevoelstemperatuur Dauwpunt Vochtigheid Wind Precip. Hoogte Geactualiseerd Type